createdAt,value
2019-03-20T00:00:00.001Z,925.75
2019-03-20T00:00:13.081Z,925.77
2019-03-20T00:00:26.090Z,925.79
2019-03-20T00:00:39.166Z,925.75
2019-03-20T00:00:52.177Z,925.75
2019-03-20T00:01:04.725Z,925.75
2019-03-20T00:01:18.168Z,925.75
2019-03-20T00:01:31.220Z,925.74
2019-03-20T00:01:53.644Z,925.75
2019-03-20T00:02:06.612Z,925.78
2019-03-20T00:02:19.655Z,925.75
2019-03-20T00:02:32.162Z,925.77
2019-03-20T00:02:45.165Z,925.75
2019-03-20T00:02:58.152Z,925.77
2019-03-20T00:03:11.204Z,925.76
2019-03-20T00:03:23.715Z,925.77
2019-03-20T00:03:36.691Z,925.77
2019-03-20T00:03:49.652Z,925.77
2019-03-20T00:04:02.755Z,925.77
2019-03-20T00:04:15.769Z,925.78
2019-03-20T00:04:28.764Z,925.79
2019-03-20T00:04:50.761Z,925.84
2019-03-20T00:05:03.837Z,925.82
2019-03-20T00:05:16.909Z,925.84
2019-03-20T00:05:29.893Z,925.82
2019-03-20T00:05:42.825Z,925.82
2019-03-20T00:05:55.876Z,925.83
2019-03-20T00:06:08.004Z,925.83
2019-03-20T00:06:20.563Z,925.79
2019-03-20T00:06:33.634Z,925.82
2019-03-20T00:06:46.574Z,925.88
2019-03-20T00:06:59.085Z,925.89
2019-03-20T00:07:12.045Z,925.87
2019-03-20T00:07:25.066Z,925.83
2019-03-20T00:07:38.028Z,925.87
2019-03-20T00:07:51.047Z,925.88
2019-03-20T00:08:04.089Z,925.88
2019-03-20T00:08:17.177Z,925.88
2019-03-20T00:08:30.223Z,925.86
2019-03-20T00:08:43.220Z,925.89
2019-03-20T00:08:56.181Z,925.87
2019-03-20T00:09:09.257Z,925.94
2019-03-20T00:09:22.311Z,925.97
2019-03-20T00:09:35.349Z,925.91
2019-03-20T00:09:47.914Z,925.9
2019-03-20T00:10:00.973Z,925.94
2019-03-20T00:10:14.030Z,925.92
2019-03-20T00:10:27.020Z,925.9
2019-03-20T00:10:39.970Z,925.95
2019-03-20T00:10:52.978Z,925.94
2019-03-20T00:11:05.983Z,925.94
2019-03-20T00:11:18.958Z,925.96
2019-03-20T00:11:31.925Z,925.94
2019-03-20T00:11:44.974Z,925.94
2019-03-20T00:11:57.958Z,925.92
2019-03-20T00:12:10.943Z,925.94
2019-03-20T00:12:23.533Z,925.93
2019-03-20T00:12:36.633Z,925.9
2019-03-20T00:12:49.620Z,925.95
2019-03-20T00:13:02.594Z,925.92
2019-03-20T00:13:15.593Z,925.91
2019-03-20T00:13:28.522Z,925.92
2019-03-20T00:13:41.658Z,925.9
2019-03-20T00:13:54.917Z,925.9
2019-03-20T00:14:07.940Z,925.92
2019-03-20T00:14:20.484Z,925.94
2019-03-20T00:14:33.480Z,925.88
2019-03-20T00:14:46.475Z,925.88
2019-03-20T00:14:59.453Z,925.89
2019-03-20T00:15:12.337Z,925.88
2019-03-20T00:15:25.415Z,925.89
2019-03-20T00:15:38.348Z,925.88
2019-03-20T00:15:51.380Z,925.88
2019-03-20T00:16:04.328Z,925.89
2019-03-20T00:16:17.301Z,925.9
2019-03-20T00:16:30.373Z,925.89
2019-03-20T00:16:43.257Z,925.9
2019-03-20T00:16:56.313Z,925.89
2019-03-20T00:17:11.160Z,925.87
2019-03-20T00:17:24.161Z,925.9
2019-03-20T00:17:37.168Z,925.88
2019-03-20T00:17:50.123Z,925.89
2019-03-20T00:18:03.092Z,925.86
2019-03-20T00:18:16.162Z,925.9
2019-03-20T00:18:29.183Z,925.91
2019-03-20T00:18:42.151Z,925.91
2019-03-20T00:18:55.159Z,925.9
2019-03-20T00:19:08.220Z,925.89
2019-03-20T00:19:21.294Z,925.91
2019-03-20T00:19:34.288Z,925.92
2019-03-20T00:19:47.264Z,925.95
2019-03-20T00:20:00.348Z,925.92
2019-03-20T00:20:13.371Z,925.96
2019-03-20T00:20:26.403Z,925.95
2019-03-20T00:20:39.409Z,925.94
2019-03-20T00:20:52.392Z,925.92
2019-03-20T00:21:05.351Z,925.95
2019-03-20T00:21:18.391Z,925.96
2019-03-20T00:21:31.385Z,925.96
2019-03-20T00:21:44.358Z,925.96
2019-03-20T00:21:57.398Z,925.94
2019-03-20T00:22:10.401Z,925.97
2019-03-20T00:22:23.443Z,925.92
2019-03-20T00:22:36.472Z,925.93
2019-03-20T00:22:50.439Z,925.97
2019-03-20T00:23:03.472Z,925.94
2019-03-20T00:23:16.447Z,925.99
2019-03-20T00:23:29.440Z,926
2019-03-20T00:23:42.488Z,925.98
2019-03-20T00:23:55.558Z,925.97
2019-03-20T00:24:08.617Z,926.01
2019-03-20T00:24:21.638Z,925.99
2019-03-20T00:24:34.660Z,926.02
2019-03-20T00:24:47.594Z,926
2019-03-20T00:25:00.251Z,926.02
2019-03-20T00:25:13.255Z,926.06
2019-03-20T00:25:26.312Z,926.01
2019-03-20T00:25:39.374Z,926.04
2019-03-20T00:25:52.411Z,926.08
2019-03-20T00:26:05.439Z,926.06
2019-03-20T00:26:18.416Z,926.05
2019-03-20T00:26:31.407Z,926.04
2019-03-20T00:26:44.360Z,926.06
2019-03-20T00:26:57.430Z,926.09
2019-03-20T00:27:10.460Z,926.04
2019-03-20T00:27:23.517Z,926.07
2019-03-20T00:27:36.503Z,926.09
2019-03-20T00:27:51.639Z,926.12
2019-03-20T00:28:04.649Z,926.1
2019-03-20T00:28:17.603Z,926.08
2019-03-20T00:28:30.714Z,926.07
2019-03-20T00:28:43.768Z,926.09
2019-03-20T00:28:56.788Z,926.1
2019-03-20T00:29:09.771Z,926.1
2019-03-20T00:29:22.324Z,926.07
2019-03-20T00:29:35.370Z,926.09
2019-03-20T00:29:48.387Z,926.07
2019-03-20T00:30:00.934Z,926.11
2019-03-20T00:30:13.891Z,926.11
2019-03-20T00:30:26.925Z,926.08
2019-03-20T00:30:40.091Z,926.1
2019-03-20T00:30:53.086Z,926.09
2019-03-20T00:31:06.142Z,926.13
2019-03-20T00:31:19.143Z,926.14
2019-03-20T00:31:32.155Z,926.15
2019-03-20T00:31:45.161Z,926.1
2019-03-20T00:31:58.047Z,926.1
2019-03-20T00:32:11.094Z,926.1
2019-03-20T00:32:24.119Z,926.07
2019-03-20T00:32:37.150Z,926.1
2019-03-20T00:32:50.164Z,926.11
2019-03-20T00:33:03.196Z,926.08
2019-03-20T00:33:16.190Z,926.1
2019-03-20T00:33:29.183Z,926.07
2019-03-20T00:33:42.215Z,926.09
2019-03-20T00:33:55.258Z,926.1
2019-03-20T00:34:08.364Z,926.12
2019-03-20T00:34:21.424Z,926.11
2019-03-20T00:34:34.394Z,926.11
2019-03-20T00:34:47.361Z,926.09
2019-03-20T00:35:10.540Z,926.12
2019-03-20T00:35:23.604Z,926.09
2019-03-20T00:35:36.584Z,926.11
2019-03-20T00:35:49.592Z,926.09
2019-03-20T00:36:02.555Z,926.1
2019-03-20T00:36:15.564Z,926.11
2019-03-20T00:36:28.583Z,926.07
2019-03-20T00:36:41.164Z,926.08
2019-03-20T00:36:54.173Z,926.09
2019-03-20T00:37:07.224Z,926.11
2019-03-20T00:37:20.273Z,926.09
2019-03-20T00:37:33.296Z,926.1
2019-03-20T00:37:46.298Z,926.12
2019-03-20T00:37:59.319Z,926.1
2019-03-20T00:38:12.372Z,926.13
2019-03-20T00:38:25.376Z,926.17
2019-03-20T00:38:38.411Z,926.17
2019-03-20T00:38:51.469Z,926.09
2019-03-20T00:39:04.498Z,926.09
2019-03-20T00:39:17.469Z,926.09
2019-03-20T00:39:30.469Z,926.14
2019-03-20T00:39:43.546Z,926.09
2019-03-20T00:39:56.568Z,926.07
2019-03-20T00:40:09.557Z,926.03
2019-03-20T00:40:22.602Z,926.07
2019-03-20T00:40:35.639Z,926.06
2019-03-20T00:40:48.655Z,926.03
2019-03-20T00:41:01.683Z,926.04
2019-03-20T00:41:14.720Z,926.06
2019-03-20T00:41:27.738Z,926.06
2019-03-20T00:41:40.716Z,926.05
2019-03-20T00:41:53.715Z,926.04
2019-03-20T00:42:06.849Z,926.01
2019-03-20T00:42:19.932Z,926.05
2019-03-20T00:42:35.325Z,926.04
2019-03-20T00:42:48.502Z,926.07
2019-03-20T00:43:01.450Z,926.07
2019-03-20T00:43:14.343Z,926.09
2019-03-20T00:43:27.360Z,926.04
2019-03-20T00:43:40.409Z,926.08
2019-03-20T00:43:53.446Z,926.07
2019-03-20T00:44:06.639Z,926.08
2019-03-20T00:44:19.632Z,926.06
2019-03-20T00:44:32.578Z,926.06
2019-03-20T00:44:45.585Z,926.04
2019-03-20T00:44:58.216Z,926.09
2019-03-20T00:45:11.179Z,926.07
2019-03-20T00:45:24.232Z,926.07
2019-03-20T00:45:37.221Z,926.05
2019-03-20T00:45:50.170Z,926.08
2019-03-20T00:46:03.247Z,926.12
2019-03-20T00:46:16.241Z,926.08
2019-03-20T00:46:29.270Z,926.1
2019-03-20T00:46:42.309Z,926.07
2019-03-20T00:46:55.343Z,926.09
2019-03-20T00:47:08.318Z,926.11
2019-03-20T00:47:21.399Z,926.09
2019-03-20T00:47:33.958Z,926.08
2019-03-20T00:47:46.901Z,926.09
2019-03-20T00:47:59.973Z,926.09
2019-03-20T00:48:13.031Z,926.12
2019-03-20T00:48:26.064Z,926.09
2019-03-20T00:48:39.033Z,926.15
2019-03-20T00:48:52.045Z,926.08
2019-03-20T00:49:04.986Z,926.1
2019-03-20T00:49:17.539Z,926.13
2019-03-20T00:49:30.543Z,926.17
2019-03-20T00:49:43.129Z,926.15
2019-03-20T00:49:57.965Z,926.16
2019-03-20T00:50:11.270Z,926.13
2019-03-20T00:50:24.352Z,926.1
2019-03-20T00:50:36.838Z,926.15
2019-03-20T00:50:49.857Z,926.17
2019-03-20T00:51:02.909Z,926.17
2019-03-20T00:51:15.944Z,926.13
2019-03-20T00:51:28.974Z,926.12
2019-03-20T00:51:41.549Z,926.14
2019-03-20T00:51:54.604Z,926.09
2019-03-20T00:52:07.707Z,926.11
2019-03-20T00:52:20.767Z,926.06
2019-03-20T00:52:33.760Z,926.08
2019-03-20T00:52:46.355Z,926.04
2019-03-20T00:52:59.369Z,926.08
2019-03-20T00:53:12.241Z,926.05
2019-03-20T00:53:25.210Z,926.1
2019-03-20T00:53:38.190Z,926.03
2019-03-20T00:53:51.228Z,926.04
2019-03-20T00:54:04.226Z,926.05
2019-03-20T00:54:17.199Z,926.08
2019-03-20T00:54:30.173Z,926
2019-03-20T00:54:42.693Z,926.06
2019-03-20T00:54:55.714Z,926.03
2019-03-20T00:55:08.781Z,926.01
2019-03-20T00:55:21.844Z,926.07
2019-03-20T00:55:34.890Z,926.05
2019-03-20T00:55:47.932Z,925.99
2019-03-20T00:56:01.008Z,925.99
2019-03-20T00:56:13.977Z,926.02
2019-03-20T00:56:27.011Z,926
2019-03-20T00:56:40.072Z,926.02
2019-03-20T00:56:53.095Z,926.02
2019-03-20T00:57:06.085Z,925.99
2019-03-20T00:57:19.045Z,925.98
2019-03-20T00:57:32.067Z,926.03
2019-03-20T00:57:45.116Z,926
2019-03-20T00:57:58.141Z,926
2019-03-20T00:58:11.211Z,925.99
2019-03-20T00:58:24.163Z,925.99
2019-03-20T00:58:39.519Z,925.97
2019-03-20T00:58:52.723Z,925.98
2019-03-20T00:59:05.657Z,926.01
2019-03-20T00:59:19.543Z,925.99
2019-03-20T00:59:32.500Z,925.99
2019-03-20T00:59:45.540Z,925.99
2019-03-20T00:59:58.590Z,926
2019-03-20T01:00:11.585Z,926.03
2019-03-20T01:00:24.627Z,925.99
2019-03-20T01:00:37.212Z,926.02
2019-03-20T01:00:50.225Z,926.01
2019-03-20T01:01:02.864Z,926.01
2019-03-20T01:01:15.869Z,925.99
2019-03-20T01:01:28.375Z,926.03
2019-03-20T01:01:41.458Z,926.04
2019-03-20T01:01:54.492Z,926.01
2019-03-20T01:02:07.468Z,926.01
2019-03-20T01:02:20.500Z,926.03
2019-03-20T01:02:33.439Z,926
2019-03-20T01:02:46.470Z,926.04
2019-03-20T01:02:59.553Z,925.99
2019-03-20T01:03:12.591Z,926.02
2019-03-20T01:03:25.118Z,926
2019-03-20T01:03:38.249Z,925.99
2019-03-20T01:03:51.255Z,926.01
2019-03-20T01:04:04.187Z,925.94
2019-03-20T01:04:17.211Z,925.99
2019-03-20T01:04:30.220Z,926.07
2019-03-20T01:04:43.308Z,925.97
2019-03-20T01:04:56.322Z,925.94
2019-03-20T01:05:19.551Z,925.98
2019-03-20T01:05:32.565Z,925.98
2019-03-20T01:05:45.580Z,926
2019-03-20T01:05:58.626Z,925.98
2019-03-20T01:06:11.569Z,925.93
2019-03-20T01:06:24.518Z,925.97
2019-03-20T01:06:37.530Z,925.96
2019-03-20T01:06:50.571Z,925.97
2019-03-20T01:07:03.599Z,925.93
2019-03-20T01:07:17.333Z,925.93
2019-03-20T01:07:30.382Z,925.95
2019-03-20T01:07:43.433Z,925.9
2019-03-20T01:07:56.502Z,925.96
2019-03-20T01:08:09.487Z,925.96
2019-03-20T01:08:22.516Z,926.01
2019-03-20T01:08:35.107Z,925.91
2019-03-20T01:08:48.097Z,925.91
2019-03-20T01:09:01.108Z,925.88
2019-03-20T01:09:14.161Z,925.87
2019-03-20T01:09:27.251Z,925.85
2019-03-20T01:09:40.180Z,925.91
2019-03-20T01:09:53.143Z,925.88
2019-03-20T01:10:06.201Z,925.9
2019-03-20T01:10:19.262Z,925.9
2019-03-20T01:10:32.361Z,925.93
2019-03-20T01:10:45.453Z,925.89
2019-03-20T01:10:58.432Z,925.93
2019-03-20T01:11:11.579Z,925.9
2019-03-20T01:11:24.131Z,925.91
2019-03-20T01:11:37.203Z,925.85
2019-03-20T01:11:50.185Z,925.89
2019-03-20T01:12:03.215Z,925.84
2019-03-20T01:12:18.724Z,925.87
2019-03-20T01:12:31.725Z,925.82
2019-03-20T01:12:44.704Z,925.86
2019-03-20T01:12:57.725Z,925.89
2019-03-20T01:13:10.750Z,925.89
2019-03-20T01:13:23.758Z,925.85
2019-03-20T01:13:36.753Z,925.82
2019-03-20T01:13:49.696Z,925.88
2019-03-20T01:14:02.753Z,925.89
2019-03-20T01:14:15.953Z,925.87
2019-03-20T01:14:29.008Z,925.91
2019-03-20T01:14:42.049Z,925.9
2019-03-20T01:14:55.137Z,925.89
2019-03-20T01:15:08.193Z,925.9
2019-03-20T01:15:21.160Z,925.93
2019-03-20T01:15:34.218Z,925.91
2019-03-20T01:15:47.242Z,925.91
2019-03-20T01:16:00.255Z,925.86
2019-03-20T01:16:13.318Z,925.91
2019-03-20T01:16:26.345Z,925.87
2019-03-20T01:16:39.348Z,925.91
2019-03-20T01:16:52.400Z,925.9
2019-03-20T01:17:05.433Z,925.92
2019-03-20T01:17:18.474Z,925.91
2019-03-20T01:17:31.444Z,925.9
2019-03-20T01:17:44.465Z,925.93
2019-03-20T01:17:57.489Z,925.95
2019-03-20T01:18:10.555Z,925.93
2019-03-20T01:18:23.725Z,925.91
2019-03-20T01:18:36.825Z,925.9
2019-03-20T01:18:49.899Z,925.94
2019-03-20T01:19:02.975Z,925.91
2019-03-20T01:19:15.948Z,925.94
2019-03-20T01:19:28.932Z,925.93
2019-03-20T01:19:41.819Z,925.98
2019-03-20T01:19:54.872Z,925.99
2019-03-20T01:20:07.815Z,925.93
2019-03-20T01:20:20.780Z,925.94
2019-03-20T01:20:33.861Z,925.94
2019-03-20T01:20:46.922Z,925.96
2019-03-20T01:20:59.914Z,925.95
2019-03-20T01:21:12.991Z,925.94
2019-03-20T01:21:26.067Z,925.96
2019-03-20T01:21:39.059Z,925.97
2019-03-20T01:21:52.040Z,925.95
2019-03-20T01:22:05.124Z,925.95
2019-03-20T01:22:18.127Z,925.96
2019-03-20T01:22:31.122Z,925.93
2019-03-20T01:22:44.127Z,925.98
2019-03-20T01:22:57.124Z,925.95
2019-03-20T01:23:10.116Z,925.98
2019-03-20T01:23:23.115Z,925.97
2019-03-20T01:23:36.089Z,926
2019-03-20T01:23:49.057Z,925.95
2019-03-20T01:24:02.047Z,925.98
2019-03-20T01:24:15.025Z,925.94
2019-03-20T01:24:28.042Z,925.96
2019-03-20T01:24:41.022Z,925.95
2019-03-20T01:24:53.955Z,925.98
2019-03-20T01:25:07.002Z,925.98
2019-03-20T01:25:20.042Z,925.91
2019-03-20T01:25:35.037Z,925.97
2019-03-20T01:25:48.190Z,925.96
2019-03-20T01:26:01.251Z,925.95
2019-03-20T01:26:14.227Z,925.94
2019-03-20T01:26:27.331Z,925.98
2019-03-20T01:26:40.384Z,925.96
2019-03-20T01:26:53.406Z,925.95
2019-03-20T01:27:06.427Z,925.92
2019-03-20T01:27:19.364Z,925.92
2019-03-20T01:27:32.354Z,925.94
2019-03-20T01:27:45.359Z,925.93
2019-03-20T01:27:58.388Z,925.94
2019-03-20T01:28:11.439Z,925.93
2019-03-20T01:28:24.436Z,925.96
2019-03-20T01:28:37.461Z,925.93
2019-03-20T01:28:50.507Z,925.9
2019-03-20T01:29:03.380Z,925.92
2019-03-20T01:29:16.410Z,925.91
2019-03-20T01:29:31.105Z,925.89
2019-03-20T01:29:44.125Z,925.92
2019-03-20T01:29:57.126Z,925.91
2019-03-20T01:30:10.431Z,925.93
2019-03-20T01:30:23.387Z,925.94
2019-03-20T01:30:36.472Z,925.87
2019-03-20T01:30:49.521Z,925.91
2019-03-20T01:31:02.493Z,925.85
2019-03-20T01:31:15.510Z,925.86
2019-03-20T01:31:28.520Z,925.91
2019-03-20T01:31:41.558Z,925.87
2019-03-20T01:31:54.611Z,925.89
2019-03-20T01:32:07.607Z,925.88
2019-03-20T01:32:20.634Z,925.85
2019-03-20T01:32:33.602Z,925.87
2019-03-20T01:32:46.644Z,925.89
2019-03-20T01:32:59.657Z,925.9
2019-03-20T01:33:12.593Z,925.9
2019-03-20T01:33:25.599Z,925.88
2019-03-20T01:33:38.152Z,925.84
2019-03-20T01:33:51.099Z,925.9
2019-03-20T01:34:05.031Z,925.91
2019-03-20T01:34:18.084Z,925.87
2019-03-20T01:34:31.110Z,925.88
2019-03-20T01:34:45.591Z,925.88
2019-03-20T01:34:58.591Z,925.87
2019-03-20T01:35:11.592Z,925.85
2019-03-20T01:35:33.896Z,925.84
2019-03-20T01:35:46.879Z,925.88
2019-03-20T01:35:59.870Z,925.91
2019-03-20T01:36:12.904Z,925.9
2019-03-20T01:36:25.894Z,925.89
2019-03-20T01:36:38.939Z,925.88
2019-03-20T01:36:51.918Z,925.91
2019-03-20T01:37:04.963Z,925.89
2019-03-20T01:37:17.974Z,925.91
2019-03-20T01:37:30.912Z,925.92
2019-03-20T01:37:43.895Z,925.94
2019-03-20T01:37:56.971Z,925.91
2019-03-20T01:38:09.523Z,925.88
2019-03-20T01:38:22.568Z,925.93
2019-03-20T01:38:35.129Z,925.94
2019-03-20T01:38:48.166Z,925.9
2019-03-20T01:39:01.190Z,925.88
2019-03-20T01:39:14.258Z,925.94
2019-03-20T01:39:27.269Z,925.92
2019-03-20T01:39:40.184Z,925.94
2019-03-20T01:39:53.166Z,925.93
2019-03-20T01:40:06.109Z,925.93
2019-03-20T01:40:19.142Z,925.91
2019-03-20T01:40:32.132Z,925.9
2019-03-20T01:40:47.586Z,925.9
2019-03-20T01:41:00.628Z,925.9
2019-03-20T01:41:13.688Z,925.88
2019-03-20T01:41:37.335Z,925.91
2019-03-20T01:41:50.678Z,925.87
2019-03-20T01:42:03.729Z,925.88
2019-03-20T01:42:16.785Z,925.85
2019-03-20T01:42:29.825Z,925.81
2019-03-20T01:42:42.881Z,925.84
2019-03-20T01:42:55.873Z,925.88
2019-03-20T01:43:08.440Z,925.8
2019-03-20T01:43:20.995Z,925.84
2019-03-20T01:43:33.967Z,925.84
2019-03-20T01:43:46.970Z,925.83
2019-03-20T01:43:59.960Z,925.84
2019-03-20T01:44:12.991Z,925.84
2019-03-20T01:44:26.175Z,925.78
2019-03-20T01:44:39.179Z,925.77
2019-03-20T01:44:52.306Z,925.78
2019-03-20T01:45:05.536Z,925.8
2019-03-20T01:45:18.471Z,925.77
2019-03-20T01:45:31.515Z,925.78
2019-03-20T01:45:44.534Z,925.79
2019-03-20T01:45:57.546Z,925.77
2019-03-20T01:46:10.459Z,925.78
2019-03-20T01:46:23.473Z,925.79
2019-03-20T01:46:36.507Z,925.81
2019-03-20T01:46:49.562Z,925.79
2019-03-20T01:47:02.624Z,925.79
2019-03-20T01:47:16.979Z,925.75
2019-03-20T01:47:29.987Z,925.76
2019-03-20T01:47:43.020Z,925.74
2019-03-20T01:47:55.594Z,925.75
2019-03-20T01:48:08.670Z,925.76
2019-03-20T01:48:22.149Z,925.74
2019-03-20T01:48:35.467Z,925.72
2019-03-20T01:48:48.429Z,925.75
2019-03-20T01:49:01.325Z,925.73
2019-03-20T01:49:14.702Z,925.71
2019-03-20T01:49:27.710Z,925.74
2019-03-20T01:49:40.769Z,925.69
2019-03-20T01:49:53.823Z,925.74
2019-03-20T01:50:06.865Z,925.72
2019-03-20T01:50:19.871Z,925.72
2019-03-20T01:50:32.951Z,925.72
2019-03-20T01:50:45.930Z,925.73
2019-03-20T01:50:58.986Z,925.72
2019-03-20T01:51:12.052Z,925.76
2019-03-20T01:51:25.070Z,925.76
2019-03-20T01:51:38.058Z,925.79
2019-03-20T01:51:51.099Z,925.75
2019-03-20T01:52:04.118Z,925.75
2019-03-20T01:52:17.137Z,925.74
2019-03-20T01:52:30.142Z,925.77
2019-03-20T01:52:43.152Z,925.74
2019-03-20T01:52:56.163Z,925.78
2019-03-20T01:53:09.197Z,925.77
2019-03-20T01:53:22.209Z,925.74
2019-03-20T01:53:35.245Z,925.79
2019-03-20T01:53:48.325Z,925.77
2019-03-20T01:54:01.479Z,925.76
2019-03-20T01:54:14.033Z,925.76
2019-03-20T01:54:27.024Z,925.8
2019-03-20T01:54:39.934Z,925.75
2019-03-20T01:54:52.478Z,925.76
2019-03-20T01:55:05.455Z,925.74
2019-03-20T01:55:18.532Z,925.75
2019-03-20T01:55:31.591Z,925.71
2019-03-20T01:55:44.653Z,925.71
2019-03-20T01:55:57.742Z,925.71
2019-03-20T01:56:11.632Z,925.74
2019-03-20T01:56:24.623Z,925.76
2019-03-20T01:56:37.720Z,925.79
2019-03-20T01:56:50.663Z,925.75
2019-03-20T01:57:03.572Z,925.76
2019-03-20T01:57:16.533Z,925.79
2019-03-20T01:57:29.616Z,925.79
2019-03-20T01:57:42.708Z,925.77
2019-03-20T01:57:55.793Z,925.78
2019-03-20T01:58:08.815Z,925.75
2019-03-20T01:58:21.829Z,925.72
2019-03-20T01:58:34.811Z,925.77
2019-03-20T01:58:47.803Z,925.77
2019-03-20T01:59:00.798Z,925.79
2019-03-20T01:59:13.814Z,925.77
2019-03-20T01:59:26.846Z,925.76
2019-03-20T01:59:40.849Z,925.77
2019-03-20T01:59:53.893Z,925.79
2019-03-20T02:00:07.029Z,925.78
2019-03-20T02:00:19.958Z,925.76
2019-03-20T02:00:32.993Z,925.78
2019-03-20T02:00:46.061Z,925.74
2019-03-20T02:00:59.100Z,925.75
2019-03-20T02:01:12.213Z,925.77
2019-03-20T02:01:25.154Z,925.77
2019-03-20T02:01:38.293Z,925.77
2019-03-20T02:01:51.329Z,925.78
2019-03-20T02:02:04.427Z,925.76
2019-03-20T02:02:17.432Z,925.77
2019-03-20T02:02:30.484Z,925.76
2019-03-20T02:02:43.497Z,925.81
2019-03-20T02:02:56.139Z,925.8
2019-03-20T02:03:09.142Z,925.79
2019-03-20T02:03:22.103Z,925.76
2019-03-20T02:03:35.136Z,925.79
2019-03-20T02:03:48.086Z,925.76
2019-03-20T02:04:01.127Z,925.8
2019-03-20T02:04:14.102Z,925.82
2019-03-20T02:04:27.118Z,925.75
2019-03-20T02:04:40.061Z,925.77
2019-03-20T02:04:53.031Z,925.76
2019-03-20T02:05:06.128Z,925.76
2019-03-20T02:05:19.172Z,925.78
2019-03-20T02:05:42.617Z,925.82
2019-03-20T02:05:55.677Z,925.76
2019-03-20T02:06:08.648Z,925.77
2019-03-20T02:06:21.598Z,925.74
2019-03-20T02:06:34.640Z,925.76
2019-03-20T02:06:47.716Z,925.73
2019-03-20T02:07:00.720Z,925.73
2019-03-20T02:07:13.831Z,925.72
2019-03-20T02:07:26.894Z,925.75
2019-03-20T02:07:39.956Z,925.75
2019-03-20T02:07:52.912Z,925.73
2019-03-20T02:08:05.557Z,925.73
2019-03-20T02:08:18.100Z,925.72
2019-03-20T02:08:31.136Z,925.75
2019-03-20T02:08:44.115Z,925.69
2019-03-20T02:08:57.172Z,925.71
2019-03-20T02:09:10.087Z,925.69
2019-03-20T02:09:23.081Z,925.71
2019-03-20T02:09:36.048Z,925.71
2019-03-20T02:09:49.014Z,925.71
2019-03-20T02:10:02.066Z,925.69
2019-03-20T02:10:15.094Z,925.7
2019-03-20T02:10:28.121Z,925.68
2019-03-20T02:10:41.093Z,925.73
2019-03-20T02:10:54.156Z,925.68
2019-03-20T02:11:07.156Z,925.7
2019-03-20T02:11:20.183Z,925.68
2019-03-20T02:11:33.119Z,925.69
2019-03-20T02:11:46.132Z,925.71
2019-03-20T02:11:59.187Z,925.75
2019-03-20T02:12:12.230Z,925.72
2019-03-20T02:12:24.719Z,925.72
2019-03-20T02:12:37.641Z,925.7
2019-03-20T02:12:50.637Z,925.66
2019-03-20T02:13:05.764Z,925.68
2019-03-20T02:13:18.748Z,925.74
2019-03-20T02:13:31.719Z,925.73
2019-03-20T02:13:44.694Z,925.72
2019-03-20T02:13:57.733Z,925.7
2019-03-20T02:14:10.690Z,925.68
2019-03-20T02:14:23.640Z,925.7
2019-03-20T02:14:37.394Z,925.69
2019-03-20T02:14:49.939Z,925.7
2019-03-20T02:15:02.955Z,925.7
2019-03-20T02:15:15.903Z,925.69
2019-03-20T02:15:39.874Z,925.69
2019-03-20T02:15:52.895Z,925.69
2019-03-20T02:16:05.922Z,925.68
2019-03-20T02:16:18.943Z,925.64
2019-03-20T02:16:31.453Z,925.64
2019-03-20T02:16:44.416Z,925.66
2019-03-20T02:16:57.441Z,925.65
2019-03-20T02:17:10.436Z,925.65
2019-03-20T02:17:23.344Z,925.64
2019-03-20T02:17:36.283Z,925.63
2019-03-20T02:17:49.314Z,925.64
2019-03-20T02:18:02.307Z,925.66
2019-03-20T02:18:15.210Z,925.66
2019-03-20T02:18:28.211Z,925.61
2019-03-20T02:18:41.200Z,925.63
2019-03-20T02:18:54.263Z,925.59
2019-03-20T02:19:06.811Z,925.59
2019-03-20T02:19:19.820Z,925.6
2019-03-20T02:19:32.754Z,925.61
2019-03-20T02:19:45.785Z,925.55
2019-03-20T02:19:58.779Z,925.61
2019-03-20T02:20:11.853Z,925.61
2019-03-20T02:20:24.879Z,925.61
2019-03-20T02:20:37.971Z,925.68
2019-03-20T02:20:50.937Z,925.6
2019-03-20T02:21:03.873Z,925.6
2019-03-20T02:21:16.960Z,925.62
2019-03-20T02:21:29.945Z,925.67
2019-03-20T02:21:42.962Z,925.65
2019-03-20T02:21:55.999Z,925.62
2019-03-20T02:22:09.026Z,925.65
2019-03-20T02:22:22.065Z,925.62
2019-03-20T02:22:35.071Z,925.65
2019-03-20T02:22:48.042Z,925.61
2019-03-20T02:23:01.105Z,925.65
2019-03-20T02:23:14.131Z,925.64
2019-03-20T02:23:27.172Z,925.65
2019-03-20T02:23:40.216Z,925.67
2019-03-20T02:23:53.206Z,925.69
2019-03-20T02:24:06.195Z,925.65
2019-03-20T02:24:19.208Z,925.66
2019-03-20T02:24:32.135Z,925.69
2019-03-20T02:24:45.128Z,925.63
2019-03-20T02:24:58.067Z,925.68
2019-03-20T02:25:11.093Z,925.66
2019-03-20T02:25:23.688Z,925.7
2019-03-20T02:25:39.369Z,925.66
2019-03-20T02:25:52.457Z,925.67
2019-03-20T02:26:05.539Z,925.68
2019-03-20T02:26:18.567Z,925.65
2019-03-20T02:26:31.588Z,925.65
2019-03-20T02:26:44.660Z,925.63
2019-03-20T02:26:57.680Z,925.67
2019-03-20T02:27:10.668Z,925.67
2019-03-20T02:27:23.604Z,925.65
2019-03-20T02:27:36.634Z,925.65
2019-03-20T02:27:49.715Z,925.7
2019-03-20T02:28:02.759Z,925.67
2019-03-20T02:28:15.776Z,925.68
2019-03-20T02:28:28.820Z,925.65
2019-03-20T02:28:41.876Z,925.67
2019-03-20T02:28:54.858Z,925.65
2019-03-20T02:29:07.905Z,925.67
2019-03-20T02:29:20.926Z,925.67
2019-03-20T02:29:33.960Z,925.64
2019-03-20T02:29:47.914Z,925.64
2019-03-20T02:30:00.987Z,925.63
2019-03-20T02:30:14.038Z,925.63
2019-03-20T02:30:27.053Z,925.63
2019-03-20T02:30:40.037Z,925.65
2019-03-20T02:30:53.061Z,925.67
2019-03-20T02:31:06.186Z,925.62
2019-03-20T02:31:19.289Z,925.64
2019-03-20T02:31:32.481Z,925.63
2019-03-20T02:31:45.538Z,925.64
2019-03-20T02:31:58.625Z,925.63
2019-03-20T02:32:11.928Z,925.58
2019-03-20T02:32:24.900Z,925.56
2019-03-20T02:32:37.932Z,925.61
2019-03-20T02:32:51.010Z,925.58
2019-03-20T02:33:04.019Z,925.57
2019-03-20T02:33:16.993Z,925.53
2019-03-20T02:33:29.658Z,925.56
2019-03-20T02:33:42.728Z,925.53
2019-03-20T02:33:55.768Z,925.52
2019-03-20T02:34:08.827Z,925.52
2019-03-20T02:34:21.899Z,925.55
2019-03-20T02:34:34.902Z,925.55
2019-03-20T02:34:47.958Z,925.56
2019-03-20T02:35:00.987Z,925.55
2019-03-20T02:35:13.920Z,925.51
2019-03-20T02:35:26.554Z,925.56
2019-03-20T02:35:54.790Z,925.49
2019-03-20T02:36:07.834Z,925.55
2019-03-20T02:36:20.751Z,925.53
2019-03-20T02:36:33.807Z,925.55
2019-03-20T02:36:46.906Z,925.52
2019-03-20T02:36:59.935Z,925.5
2019-03-20T02:37:12.989Z,925.51
2019-03-20T02:37:25.084Z,925.53
2019-03-20T02:37:38.184Z,925.48
2019-03-20T02:37:51.262Z,925.48
2019-03-20T02:38:04.274Z,925.5
2019-03-20T02:38:17.217Z,925.5
2019-03-20T02:38:30.196Z,925.48
2019-03-20T02:38:43.214Z,925.43
2019-03-20T02:38:56.226Z,925.47
2019-03-20T02:39:09.290Z,925.51
2019-03-20T02:39:22.382Z,925.46
2019-03-20T02:39:35.479Z,925.47
2019-03-20T02:39:48.560Z,925.48
2019-03-20T02:40:01.642Z,925.47
2019-03-20T02:40:14.696Z,925.47
2019-03-20T02:40:27.692Z,925.49
2019-03-20T02:40:40.766Z,925.49
2019-03-20T02:40:53.831Z,925.45
2019-03-20T02:41:06.977Z,925.5
2019-03-20T02:41:20.001Z,925.48
2019-03-20T02:41:33.015Z,925.49
2019-03-20T02:41:46.045Z,925.47
2019-03-20T02:41:59.082Z,925.49
2019-03-20T02:42:11.670Z,925.46
2019-03-20T02:42:24.754Z,925.48
2019-03-20T02:42:37.848Z,925.47
2019-03-20T02:42:50.778Z,925.46
2019-03-20T02:43:03.882Z,925.45
2019-03-20T02:43:16.941Z,925.47
2019-03-20T02:43:30.005Z,925.46
2019-03-20T02:43:43.012Z,925.44
2019-03-20T02:43:56.083Z,925.43
2019-03-20T02:44:09.077Z,925.43
2019-03-20T02:44:21.624Z,925.44
2019-03-20T02:44:34.228Z,925.44
2019-03-20T02:44:47.994Z,925.44